createdAt,value
2023-01-11T00:00:13.046Z,85.50
2023-01-11T00:01:14.785Z,84.87
2023-01-11T00:02:16.574Z,86.10
2023-01-11T00:03:18.388Z,85.58
2023-01-11T00:04:20.960Z,85.50
2023-01-11T00:05:23.863Z,86.08
2023-01-11T00:06:25.699Z,85.16
2023-01-11T00:07:27.496Z,85.76
2023-01-11T00:08:29.134Z,85.18
2023-01-11T00:09:30.978Z,85.19
2023-01-11T00:10:33.843Z,85.09
2023-01-11T00:11:35.725Z,84.88
2023-01-11T00:12:37.400Z,85.59
2023-01-11T00:13:39.120Z,85.71
2023-01-11T00:14:41.184Z,86.35
2023-01-11T00:15:43.324Z,86.08
2023-01-11T00:16:45.146Z,85.61
2023-01-11T00:17:46.838Z,85.44
2023-01-11T00:18:48.586Z,85.17
2023-01-11T00:19:50.384Z,85.84
2023-01-11T00:20:52.189Z,84.60
2023-01-11T00:21:53.858Z,84.49
2023-01-11T00:22:55.555Z,84.97
2023-01-11T00:23:57.340Z,84.16
2023-01-11T00:24:59.109Z,84.59
2023-01-11T00:26:04.619Z,84.32
2023-01-11T00:27:06.401Z,83.70
2023-01-11T00:28:08.131Z,84.41
2023-01-11T00:29:09.872Z,83.84
2023-01-11T00:30:12.061Z,83.96
2023-01-11T00:31:13.824Z,83.70
2023-01-11T00:32:15.572Z,83.70
2023-01-11T00:33:17.336Z,83.40
2023-01-11T00:34:20.300Z,83.50
2023-01-11T00:35:22.172Z,83.76
2023-01-11T00:36:23.919Z,84.06
2023-01-11T00:37:25.700Z,84.55
2023-01-11T00:38:51.837Z,84.54
2023-01-11T00:39:53.553Z,84.59
2023-01-11T00:40:55.323Z,84.91
2023-01-11T00:42:15.844Z,84.53
2023-01-11T00:43:40.489Z,84.24
2023-01-11T00:45:00.915Z,85.07
2023-01-11T00:46:21.002Z,84.77
2023-01-11T00:47:41.188Z,84.23
2023-01-11T00:48:43.007Z,84.56
2023-01-11T00:49:44.800Z,84.08
2023-01-11T00:50:46.565Z,84.45
2023-01-11T00:51:48.982Z,84.37
2023-01-11T00:52:51.056Z,84.86
2023-01-11T00:53:52.865Z,85.24
2023-01-11T00:54:54.617Z,84.17
2023-01-11T00:55:56.380Z,84.51
2023-01-11T00:56:58.119Z,83.96
2023-01-11T00:58:00.208Z,83.90
2023-01-11T00:59:02.602Z,84.00
2023-01-11T01:00:05.499Z,83.12
2023-01-11T01:01:08.391Z,84.31
2023-01-11T01:02:11.444Z,84.24
2023-01-11T01:03:13.278Z,84.65
2023-01-11T01:04:15.023Z,84.38
2023-01-11T01:05:17.552Z,85.33
2023-01-11T01:06:19.532Z,84.49
2023-01-11T01:07:21.317Z,84.68
2023-01-11T01:08:23.122Z,85.27
2023-01-11T01:09:25.109Z,84.34
2023-01-11T01:10:26.880Z,84.92
2023-01-11T01:11:28.580Z,84.93
2023-01-11T01:12:49.122Z,85.12
2023-01-11T01:14:09.177Z,85.67
2023-01-11T01:15:11.218Z,84.75
2023-01-11T01:16:13.275Z,84.42
2023-01-11T01:17:15.092Z,85.04
2023-01-11T01:18:16.839Z,85.43
2023-01-11T01:19:19.253Z,84.14
2023-01-11T01:20:21.384Z,84.41
2023-01-11T01:21:23.521Z,84.22
2023-01-11T01:22:25.201Z,85.17
2023-01-11T01:23:26.929Z,84.60
2023-01-11T01:24:29.240Z,84.11
2023-01-11T01:25:31.091Z,84.69
2023-01-11T01:26:32.756Z,85.26
2023-01-11T01:27:34.562Z,84.47
2023-01-11T01:28:36.332Z,84.95
2023-01-11T01:29:38.022Z,84.96
2023-01-11T01:30:41.474Z,85.08
2023-01-11T01:31:43.861Z,84.37
2023-01-11T01:32:45.615Z,84.84
2023-01-11T01:33:47.433Z,84.50
2023-01-11T01:34:49.130Z,84.51
2023-01-11T01:35:50.945Z,84.42
2023-01-11T01:36:52.754Z,84.69
2023-01-11T01:37:54.579Z,84.78
2023-01-11T01:38:56.323Z,84.34
2023-01-11T01:39:58.054Z,85.03
2023-01-11T01:40:59.749Z,84.66
2023-01-11T01:42:01.442Z,84.68
2023-01-11T01:43:03.243Z,84.37
2023-01-11T01:44:06.584Z,84.96
2023-01-11T01:45:18.559Z,84.52
2023-01-11T01:46:21.098Z,85.08
2023-01-11T01:47:42.982Z,84.87
2023-01-11T01:48:47.097Z,85.14
2023-01-11T01:49:49.024Z,84.91
2023-01-11T01:50:53.725Z,85.35
2023-01-11T01:51:56.157Z,85.14
2023-01-11T01:53:00.690Z,85.00
2023-01-11T01:54:05.125Z,85.20
2023-01-11T01:55:10.010Z,85.83
2023-01-11T01:56:15.196Z,85.79
2023-01-11T01:57:19.815Z,86.00
2023-01-11T01:58:25.303Z,85.96
2023-01-11T01:59:28.479Z,85.97
2023-01-11T02:00:30.401Z,85.94
2023-01-11T02:01:50.300Z,85.05
2023-01-11T02:02:52.724Z,86.28
2023-01-11T02:03:55.210Z,86.16
2023-01-11T02:04:58.035Z,86.10
2023-01-11T02:05:59.941Z,86.16
2023-01-11T02:07:10.491Z,86.04
2023-01-11T02:08:18.346Z,85.66
2023-01-11T02:09:30.020Z,86.00
2023-01-11T02:10:32.784Z,85.68
2023-01-11T02:11:34.949Z,85.18
2023-01-11T02:12:49.113Z,85.32
2023-01-11T02:13:50.838Z,85.46
2023-01-11T02:14:55.024Z,85.03
2023-01-11T02:16:09.534Z,84.50
2023-01-11T02:17:11.799Z,84.03
2023-01-11T02:18:14.246Z,83.52
2023-01-11T02:19:39.386Z,84.40
2023-01-11T02:21:19.691Z,84.20
2023-01-11T02:22:39.727Z,84.37
2023-01-11T02:24:00.181Z,83.88
2023-01-11T02:25:04.518Z,83.70
2023-01-11T02:26:11.899Z,83.70
2023-01-11T02:27:16.128Z,82.74
2023-01-11T02:28:17.924Z,83.93
2023-01-11T02:29:42.244Z,83.41
2023-01-11T02:31:02.579Z,83.43
2023-01-11T02:32:22.882Z,84.02
2023-01-11T02:33:43.701Z,83.38
2023-01-11T02:34:59.307Z,82.84
2023-01-11T02:36:19.352Z,82.74
2023-01-11T02:37:39.502Z,83.43
2023-01-11T02:38:46.976Z,84.03
2023-01-11T02:39:51.581Z,83.85
2023-01-11T02:40:56.818Z,83.87
2023-01-11T02:42:16.865Z,83.52
2023-01-11T02:43:39.603Z,82.56
2023-01-11T02:45:02.217Z,83.21
2023-01-11T02:46:14.565Z,83.91
2023-01-11T02:47:23.258Z,83.63
2023-01-11T02:48:25.059Z,84.33
2023-01-11T02:49:29.432Z,83.42
2023-01-11T02:50:44.461Z,84.41
2023-01-11T02:51:53.205Z,84.48
2023-01-11T02:53:06.460Z,83.47
2023-01-11T02:54:09.972Z,82.65
2023-01-11T02:55:13.710Z,82.99
2023-01-11T02:56:23.542Z,82.73
2023-01-11T02:57:26.984Z,83.13
2023-01-11T02:58:30.404Z,83.37
2023-01-11T02:59:33.237Z,83.54
2023-01-11T03:00:37.964Z,83.79
2023-01-11T03:01:46.787Z,83.60
2023-01-11T03:03:05.531Z,83.50
2023-01-11T03:04:22.563Z,83.26
2023-01-11T03:05:24.381Z,82.89
2023-01-11T03:06:31.306Z,82.88
2023-01-11T03:07:57.949Z,83.27
2023-01-11T03:09:06.767Z,82.93
2023-01-11T03:10:11.527Z,83.30
2023-01-11T03:11:36.146Z,83.48
2023-01-11T03:12:52.847Z,83.42
2023-01-11T03:14:00.121Z,83.04
2023-01-11T03:15:17.490Z,82.94
2023-01-11T03:16:19.219Z,82.76
2023-01-11T03:17:24.065Z,83.13
2023-01-11T03:18:55.234Z,83.34
2023-01-11T03:20:05.835Z,84.16
2023-01-11T03:21:19.419Z,84.23
2023-01-11T03:22:50.441Z,83.40
2023-01-11T03:24:04.379Z,83.79
2023-01-11T03:25:16.978Z,83.92
2023-01-11T03:26:25.205Z,83.34
2023-01-11T03:27:41.188Z,84.12
2023-01-11T03:29:08.300Z,83.55
2023-01-11T03:30:27.006Z,83.53
2023-01-11T03:31:32.564Z,84.08
2023-01-11T03:32:36.982Z,83.82
2023-01-11T03:33:46.526Z,83.36
2023-01-11T03:35:06.768Z,83.88
2023-01-11T03:36:08.815Z,82.97
2023-01-11T03:37:22.739Z,83.86
2023-01-11T03:38:33.353Z,83.16
2023-01-11T03:39:45.412Z,82.73
2023-01-11T03:40:49.868Z,83.55
2023-01-11T03:41:55.812Z,82.79
2023-01-11T03:43:12.684Z,82.56
2023-01-11T03:44:15.789Z,83.16
2023-01-11T03:45:17.768Z,82.51
2023-01-11T03:46:24.597Z,83.30
2023-01-11T03:47:27.895Z,82.58
2023-01-11T03:48:32.619Z,83.09
2023-01-11T03:49:37.463Z,82.43
2023-01-11T03:50:39.684Z,82.73
2023-01-11T03:51:46.039Z,82.87
2023-01-11T03:52:47.816Z,81.82
2023-01-11T03:53:50.753Z,83.39
2023-01-11T03:54:54.966Z,82.72
2023-01-11T03:55:57.885Z,83.04
2023-01-11T03:57:16.779Z,82.49
2023-01-11T03:58:19.057Z,82.55
2023-01-11T03:59:20.940Z,82.58
2023-01-11T04:00:23.352Z,83.14
2023-01-11T04:01:25.551Z,82.77
2023-01-11T04:02:29.322Z,82.83
2023-01-11T04:03:31.100Z,82.81
2023-01-11T04:04:32.896Z,84.12
2023-01-11T04:05:35.474Z,83.14
2023-01-11T04:06:38.736Z,82.94
2023-01-11T04:07:40.617Z,82.74
2023-01-11T04:08:42.348Z,83.14
2023-01-11T04:09:44.216Z,82.77
2023-01-11T04:10:46.072Z,82.62
2023-01-11T04:11:47.878Z,82.65
2023-01-11T04:12:49.604Z,81.77
2023-01-11T04:13:51.359Z,83.02
2023-01-11T04:14:53.230Z,82.80
2023-01-11T04:15:55.229Z,82.47
2023-01-11T04:16:57.035Z,82.11
2023-01-11T04:18:05.251Z,82.85
2023-01-11T04:19:06.984Z,82.06
2023-01-11T04:20:09.669Z,82.23
2023-01-11T04:21:11.537Z,81.95
2023-01-11T04:22:13.231Z,81.88
2023-01-11T04:23:15.494Z,81.08
2023-01-11T04:24:18.706Z,81.58
2023-01-11T04:25:20.427Z,81.30
2023-01-11T04:26:22.312Z,80.83
2023-01-11T04:27:24.106Z,80.40
2023-01-11T04:28:25.958Z,81.30
2023-01-11T04:29:27.782Z,81.16
2023-01-11T04:30:29.506Z,81.65
2023-01-11T04:31:31.579Z,80.81
2023-01-11T04:32:33.363Z,80.35
2023-01-11T04:33:35.183Z,79.90
2023-01-11T04:34:36.979Z,79.54
2023-01-11T04:35:38.830Z,80.90
2023-01-11T04:36:40.903Z,80.66
2023-01-11T04:37:42.665Z,79.64
2023-01-11T04:38:45.354Z,79.57
2023-01-11T04:39:47.172Z,80.56
2023-01-11T04:40:49.074Z,80.52
2023-01-11T04:42:09.015Z,80.06
2023-01-11T04:43:10.834Z,80.22
2023-01-11T04:44:12.706Z,80.60
2023-01-11T04:45:14.499Z,80.45
2023-01-11T04:46:16.186Z,80.43
2023-01-11T04:47:18.690Z,80.96
2023-01-11T04:48:20.433Z,80.97
2023-01-11T04:49:22.264Z,80.53
2023-01-11T04:50:27.787Z,80.17
2023-01-11T04:51:29.499Z,81.44
2023-01-11T04:52:31.272Z,80.68
2023-01-11T04:53:32.990Z,81.19
2023-01-11T04:54:34.785Z,80.99
2023-01-11T04:55:36.685Z,81.11
2023-01-11T04:56:38.489Z,80.87
2023-01-11T04:57:40.187Z,80.86
2023-01-11T04:58:41.944Z,80.38
2023-01-11T04:59:43.848Z,80.67
2023-01-11T05:00:45.598Z,80.60
2023-01-11T05:01:47.387Z,80.22
2023-01-11T05:02:49.136Z,79.26
2023-01-11T05:03:51.564Z,79.99
2023-01-11T05:04:53.349Z,80.52
2023-01-11T05:05:57.512Z,80.71
2023-01-11T05:06:59.371Z,79.75
2023-01-11T05:08:01.188Z,80.47
2023-01-11T05:09:03.211Z,79.83
2023-01-11T05:10:05.253Z,80.32
2023-01-11T05:11:07.945Z,80.38
2023-01-11T05:12:09.878Z,80.10
2023-01-11T05:13:11.676Z,80.39
2023-01-11T05:14:13.726Z,80.67
2023-01-11T05:15:15.720Z,80.80
2023-01-11T05:16:19.147Z,79.89
2023-01-11T05:17:21.021Z,80.99
2023-01-11T05:18:22.787Z,79.92
2023-01-11T05:19:24.592Z,80.36
2023-01-11T05:20:26.423Z,79.33
2023-01-11T05:21:31.600Z,79.84
2023-01-11T05:22:33.423Z,80.43
2023-01-11T05:23:39.107Z,80.23
2023-01-11T05:24:40.928Z,79.58
2023-01-11T05:25:42.812Z,78.45
2023-01-11T05:26:45.338Z,79.78
2023-01-11T05:27:47.130Z,79.74
2023-01-11T05:28:49.140Z,79.43
2023-01-11T05:29:50.968Z,78.71
2023-01-11T05:30:53.797Z,78.76
2023-01-11T05:31:55.686Z,79.55
2023-01-11T05:32:57.531Z,79.18
2023-01-11T05:33:59.580Z,79.03
2023-01-11T05:35:01.380Z,79.42
2023-01-11T05:36:04.888Z,80.07
2023-01-11T05:37:06.705Z,78.74
2023-01-11T05:38:08.530Z,78.71
2023-01-11T05:39:11.723Z,78.57
2023-01-11T05:40:13.628Z,79.60
2023-01-11T05:41:15.839Z,78.70
2023-01-11T05:42:17.772Z,78.94
2023-01-11T05:43:19.563Z,78.74
2023-01-11T05:44:39.647Z,78.47
2023-01-11T05:45:41.407Z,77.99
2023-01-11T05:46:43.988Z,78.16
2023-01-11T05:47:45.698Z,78.35
2023-01-11T05:48:47.658Z,78.66
2023-01-11T05:49:49.437Z,78.29
2023-01-11T05:50:51.754Z,78.76
2023-01-11T05:51:53.690Z,78.55
2023-01-11T05:52:55.482Z,78.78
2023-01-11T05:53:57.741Z,79.04
2023-01-11T05:54:59.730Z,79.48
2023-01-11T05:56:01.513Z,79.00
2023-01-11T05:57:03.344Z,78.42
2023-01-11T05:58:05.867Z,78.75
2023-01-11T05:59:07.838Z,78.45
2023-01-11T06:00:10.459Z,78.74
2023-01-11T06:01:12.654Z,77.97
2023-01-11T06:02:14.684Z,78.57
2023-01-11T06:03:16.564Z,77.94
2023-01-11T06:04:18.404Z,77.75
2023-01-11T06:05:20.239Z,78.83
2023-01-11T06:06:22.636Z,78.57
2023-01-11T06:07:26.102Z,78.47
2023-01-11T06:08:28.044Z,77.98
2023-01-11T06:09:29.924Z,78.35
2023-01-11T06:10:31.765Z,78.26
2023-01-11T06:11:33.580Z,78.03
2023-01-11T06:12:35.560Z,78.20
2023-01-11T06:13:37.352Z,77.99
2023-01-11T06:14:39.242Z,77.38
2023-01-11T06:15:41.082Z,77.40
2023-01-11T06:16:43.034Z,77.80
2023-01-11T06:17:44.939Z,78.48
2023-01-11T06:18:47.983Z,77.89
2023-01-11T06:19:49.767Z,77.77
2023-01-11T06:20:52.305Z,78.29
2023-01-11T06:21:54.144Z,77.92
2023-01-11T06:22:55.940Z,77.82
2023-01-11T06:23:57.967Z,78.13
2023-01-11T06:24:59.850Z,78.42
2023-01-11T06:26:05.641Z,78.34
2023-01-11T06:27:07.429Z,78.37
2023-01-11T06:28:09.513Z,77.94
2023-01-11T06:29:11.953Z,78.47
2023-01-11T06:30:13.997Z,77.77
2023-01-11T06:31:17.557Z,78.09
2023-01-11T06:32:19.895Z,78.10
2023-01-11T06:33:22.819Z,78.53
2023-01-11T06:34:24.583Z,79.00
2023-01-11T06:35:26.451Z,78.58
2023-01-11T06:36:29.775Z,78.47
2023-01-11T06:37:31.772Z,79.09
2023-01-11T06:38:33.872Z,78.46
2023-01-11T06:39:35.632Z,78.38
2023-01-11T06:40:38.453Z,78.06
2023-01-11T06:41:40.385Z,78.00
2023-01-11T06:42:42.244Z,78.36
2023-01-11T06:43:44.058Z,78.69
2023-01-11T06:44:45.814Z,79.10
2023-01-11T06:45:47.661Z,78.04
2023-01-11T06:46:49.469Z,78.14
2023-01-11T06:47:51.297Z,77.46
2023-01-11T06:48:53.224Z,77.77
2023-01-11T06:49:55.026Z,78.56
2023-01-11T06:50:58.048Z,76.89
2023-01-11T06:51:59.852Z,76.88
2023-01-11T06:53:04.427Z,75.78
2023-01-11T06:54:06.322Z,75.84
2023-01-11T06:55:08.492Z,75.64
2023-01-11T06:56:14.350Z,76.21
2023-01-11T06:57:16.131Z,76.36
2023-01-11T06:58:18.108Z,77.45
2023-01-11T06:59:20.086Z,77.10
2023-01-11T07:00:22.447Z,76.93
2023-01-11T07:01:26.306Z,77.26
2023-01-11T07:02:28.095Z,77.56
2023-01-11T07:03:29.920Z,77.03
2023-01-11T07:04:31.826Z,77.27
2023-01-11T07:05:34.711Z,77.77
2023-01-11T07:06:36.602Z,77.49
2023-01-11T07:07:39.073Z,76.91
2023-01-11T07:08:40.899Z,77.38
2023-01-11T07:09:42.882Z,76.73
2023-01-11T07:10:45.335Z,76.92
2023-01-11T07:11:47.092Z,76.60
2023-01-11T07:12:48.844Z,76.94
2023-01-11T07:13:50.632Z,76.80
2023-01-11T07:14:52.507Z,76.89
2023-01-11T07:15:57.168Z,76.75
2023-01-11T07:16:59.055Z,77.10
2023-01-11T07:18:01.080Z,76.97
2023-01-11T07:19:02.936Z,77.99
2023-01-11T07:20:05.938Z,76.67
2023-01-11T07:21:07.857Z,77.83
2023-01-11T07:22:09.676Z,76.93
2023-01-11T07:23:11.445Z,77.56
2023-01-11T07:24:13.335Z,76.92
2023-01-11T07:25:15.259Z,77.43
2023-01-11T07:26:17.576Z,77.38
2023-01-11T07:27:22.379Z,78.43
2023-01-11T07:28:24.186Z,78.27
2023-01-11T07:29:25.959Z,77.60
2023-01-11T07:30:29.350Z,77.81
2023-01-11T07:31:31.168Z,77.42
2023-01-11T07:32:33.090Z,77.67
2023-01-11T07:33:35.172Z,77.59
2023-01-11T07:34:37.075Z,77.45
2023-01-11T07:35:38.904Z,77.16
2023-01-11T07:36:40.720Z,78.47
2023-01-11T07:37:42.513Z,77.78
2023-01-11T07:38:44.436Z,77.69
2023-01-11T07:39:46.879Z,77.25
2023-01-11T07:40:48.822Z,77.35
2023-01-11T07:42:09.401Z,77.55
2023-01-11T07:43:15.203Z,77.29
2023-01-11T07:44:17.239Z,77.62
2023-01-11T07:45:19.181Z,77.45
2023-01-11T07:46:21.372Z,77.43
2023-01-11T07:47:23.329Z,77.67
2023-01-11T07:48:27.100Z,78.52
2023-01-11T07:49:29.248Z,77.17
2023-01-11T07:50:31.435Z,77.90
2023-01-11T07:51:33.433Z,77.18
2023-01-11T07:52:35.212Z,77.67
2023-01-11T07:53:37.038Z,77.40
2023-01-11T07:54:38.871Z,77.47
2023-01-11T07:55:41.175Z,77.92
2023-01-11T07:56:43.010Z,77.07
2023-01-11T07:57:44.775Z,76.83
2023-01-11T07:58:46.607Z,78.09
2023-01-11T07:59:48.522Z,77.76
2023-01-11T08:00:50.293Z,77.67
2023-01-11T08:01:52.202Z,77.36
2023-01-11T08:02:54.095Z,77.77
2023-01-11T08:03:56.403Z,77.52
2023-01-11T08:04:58.912Z,77.37
2023-01-11T08:06:00.714Z,76.58
2023-01-11T08:07:02.536Z,76.62
2023-01-11T08:08:04.725Z,76.97
2023-01-11T08:09:07.081Z,77.41
2023-01-11T08:10:09.363Z,77.00
2023-01-11T08:11:30.361Z,77.66
2023-01-11T08:12:51.639Z,76.49
2023-01-11T08:14:11.744Z,76.27
2023-01-11T08:15:14.583Z,76.25
2023-01-11T08:16:16.437Z,76.08
2023-01-11T08:17:18.206Z,76.85
2023-01-11T08:18:20.325Z,76.79
2023-01-11T08:19:22.093Z,77.06
2023-01-11T08:20:24.463Z,76.66
2023-01-11T08:21:26.216Z,76.39
2023-01-11T08:22:28.016Z,76.54
2023-01-11T08:23:31.372Z,77.33
2023-01-11T08:24:34.892Z,77.66
2023-01-11T08:25:36.707Z,77.13
2023-01-11T08:26:38.574Z,77.95
2023-01-11T08:27:40.790Z,76.51
2023-01-11T08:28:43.403Z,77.20
2023-01-11T08:29:45.249Z,77.44
2023-01-11T08:30:47.122Z,77.67
2023-01-11T08:31:49.409Z,77.56
2023-01-11T08:32:51.192Z,76.96
2023-01-11T08:33:53.235Z,77.22
2023-01-11T08:34:55.043Z,77.53
2023-01-11T08:35:56.776Z,77.09
2023-01-11T08:36:58.630Z,76.58
2023-01-11T08:38:00.476Z,76.79
2023-01-11T08:39:02.820Z,76.62
2023-01-11T08:40:05.046Z,76.18
2023-01-11T08:41:15.416Z,76.15
2023-01-11T08:42:17.281Z,76.07
2023-01-11T08:43:19.068Z,75.31
2023-01-11T08:44:33.328Z,75.58
2023-01-11T08:45:36.196Z,76.64
2023-01-11T08:46:38.323Z,76.60
2023-01-11T08:47:40.119Z,75.71
2023-01-11T08:48:42.043Z,75.30
2023-01-11T08:49:43.977Z,76.29
2023-01-11T08:50:45.769Z,76.45
2023-01-11T08:51:47.620Z,76.49
2023-01-11T08:52:51.105Z,76.02
2023-01-11T08:53:53.337Z,77.22
2023-01-11T08:54:55.217Z,77.26
2023-01-11T08:55:57.036Z,77.07
2023-01-11T08:56:58.852Z,76.58
2023-01-11T08:58:00.639Z,76.35
2023-01-11T08:59:02.781Z,76.72
2023-01-11T09:00:05.364Z,77.36
2023-01-11T09:01:09.488Z,77.28
2023-01-11T09:02:12.578Z,77.15
2023-01-11T09:03:15.288Z,76.90
2023-01-11T09:04:24.888Z,76.93
2023-01-11T09:05:27.314Z,76.29
2023-01-11T09:06:29.178Z,76.16
2023-01-11T09:07:31.047Z,77.01
2023-01-11T09:08:32.819Z,75.98
2023-01-11T09:09:34.631Z,75.15
2023-01-11T09:10:36.515Z,75.39
2023-01-11T09:11:56.929Z,75.79
2023-01-11T09:12:59.143Z,75.78
2023-01-11T09:14:01.002Z,76.02
2023-01-11T09:15:06.161Z,76.04
2023-01-11T09:16:08.352Z,76.54
2023-01-11T09:17:10.283Z,75.54
2023-01-11T09:18:12.208Z,75.85
2023-01-11T09:19:14.070Z,75.68
2023-01-11T09:20:16.103Z,75.91
2023-01-11T09:21:17.966Z,76.43
2023-01-11T09:22:19.711Z,76.40
2023-01-11T09:23:21.520Z,76.41
2023-01-11T09:24:23.514Z,75.95
2023-01-11T09:25:25.462Z,76.65
2023-01-11T09:26:27.495Z,76.33
2023-01-11T09:27:29.299Z,75.87
2023-01-11T09:28:31.192Z,76.33
2023-01-11T09:29:34.972Z,76.18
2023-01-11T09:30:39.508Z,76.45
2023-01-11T09:31:41.612Z,76.33
2023-01-11T09:32:43.541Z,75.83
2023-01-11T09:33:45.614Z,74.92
2023-01-11T09:34:49.818Z,75.42
2023-01-11T09:35:52.104Z,75.39
2023-01-11T09:36:54.915Z,75.93
2023-01-11T09:37:59.331Z,75.91
2023-01-11T09:39:02.488Z,75.93
2023-01-11T09:40:04.459Z,76.30
2023-01-11T09:41:21.905Z,76.06
2023-01-11T09:42:24.652Z,75.29
2023-01-11T09:43:28.944Z,76.06
2023-01-11T09:44:31.820Z,76.08
2023-01-11T09:45:35.677Z,75.67
2023-01-11T09:46:42.659Z,75.47
2023-01-11T09:47:53.442Z,75.34
2023-01-11T09:48:59.055Z,75.46
2023-01-11T09:50:02.628Z,75.36
2023-01-11T09:51:05.368Z,75.43
2023-01-11T09:52:26.486Z,75.10
2023-01-11T09:53:35.471Z,75.89
2023-01-11T09:54:37.340Z,75.24
2023-01-11T09:55:49.321Z,75.26
2023-01-11T09:56:54.934Z,74.74
2023-01-11T09:58:24.406Z,74.56
2023-01-11T09:59:42.856Z,75.47
2023-01-11T10:00:44.684Z,75.33
2023-01-11T10:02:11.895Z,74.71
2023-01-11T10:03:25.097Z,74.85
2023-01-11T10:04:33.259Z,74.39
2023-01-11T10:05:56.174Z,75.20
2023-01-11T10:07:01.335Z,75.16
2023-01-11T10:18:23.245Z,75.37
2023-01-11T10:18:28.857Z,75.40
2023-01-11T10:18:37.593Z,75.95
2023-01-11T10:18:52.851Z,76.34
2023-01-11T10:19:57.771Z,75.69
2023-01-11T10:21:05.238Z,76.18
2023-01-11T10:22:32.974Z,76.41
2023-01-11T10:23:50.471Z,76.86
2023-01-11T10:24:59.157Z,77.15
2023-01-11T10:26:06.277Z,77.16
2023-01-11T10:27:15.156Z,77.13
2023-01-11T10:28:20.368Z,76.96
2023-01-11T10:29:22.160Z,77.56
2023-01-11T10:31:01.517Z,76.69
2023-01-11T10:32:06.325Z,76.64
2023-01-11T10:33:38.634Z,76.98
2023-01-11T10:34:59.982Z,77.37
2023-01-11T10:36:19.216Z,77.16
2023-01-11T10:37:26.179Z,76.47
2023-01-11T10:38:55.907Z,76.43
2023-01-11T10:40:27.012Z,77.05
2023-01-11T10:41:52.627Z,76.46
2023-01-11T10:43:03.762Z,76.20
2023-01-11T10:44:17.565Z,75.42
2023-01-11T10:45:24.051Z,75.88
2023-01-11T10:46:27.129Z,75.37
2023-01-11T10:47:43.333Z,75.70
2023-01-11T10:48:46.371Z,75.60
2023-01-11T10:49:56.277Z,75.10
2023-01-11T10:51:04.324Z,75.44
2023-01-11T10:52:23.035Z,75.75
2023-01-11T10:53:37.339Z,75.18
2023-01-11T10:54:39.858Z,75.83
2023-01-11T10:56:00.255Z,75.38
2023-01-11T10:57:14.407Z,75.86
2023-01-11T10:58:19.380Z,75.51
2023-01-11T10:59:22.324Z,75.58
2023-01-11T11:00:36.948Z,76.04
2023-01-11T11:01:51.428Z,75.39
2023-01-11T11:03:12.049Z,75.25
2023-01-11T11:04:22.872Z,74.91
2023-01-11T11:05:24.670Z,74.62
2023-01-11T11:06:34.282Z,75.14
2023-01-11T11:07:40.939Z,74.83
2023-01-11T11:08:49.099Z,74.77
2023-01-11T11:10:09.644Z,75.04
2023-01-11T11:11:15.375Z,74.66
2023-01-11T11:12:23.886Z,75.14
2023-01-11T11:13:37.876Z,75.15
2023-01-11T11:14:52.886Z,75.03
2023-01-11T11:16:00.875Z,75.09
2023-01-11T11:17:02.786Z,74.98
2023-01-11T11:18:05.005Z,74.78
2023-01-11T11:19:10.694Z,74.79
2023-01-11T11:20:16.825Z,74.58
2023-01-11T11:21:23.560Z,74.85
2023-01-11T11:22:25.437Z,74.83
2023-01-11T11:23:29.017Z,74.86
2023-01-11T11:24:39.271Z,74.60
2023-01-11T11:25:43.410Z,75.04
2023-01-11T11:26:47.763Z,74.47
2023-01-11T11:27:51.360Z,74.91
2023-01-11T11:29:00.902Z,74.65
2023-01-11T11:30:03.830Z,74.22
2023-01-11T11:31:07.564Z,74.82
2023-01-11T11:32:36.769Z,74.70
2023-01-11T11:33:39.744Z,74.09
2023-01-11T11:34:47.254Z,73.62
2023-01-11T11:35:59.387Z,74.19
2023-01-11T11:37:01.771Z,74.51
2023-01-11T11:38:04.293Z,74.16
2023-01-11T11:39:19.006Z,74.49
2023-01-11T11:40:30.555Z,74.51
2023-01-11T11:41:44.853Z,74.75
2023-01-11T11:42:46.641Z,74.55
2023-01-11T11:43:48.540Z,73.76
2023-01-11T11:45:05.758Z,74.11
2023-01-11T11:46:23.082Z,74.31
2023-01-11T11:47:24.951Z,74.17
2023-01-11T11:48:28.371Z,73.44
2023-01-11T11:49:32.187Z,73.53
2023-01-11T11:50:44.709Z,74.04
2023-01-11T11:51:48.125Z,74.02
2023-01-11T11:53:04.298Z,73.58
2023-01-11T11:54:06.267Z,74.31
2023-01-11T11:55:08.967Z,73.97
2023-01-11T11:56:18.309Z,74.70
2023-01-11T11:57:28.142Z,74.16
2023-01-11T11:58:30.167Z,74.88
2023-01-11T11:59:33.529Z,74.31
2023-01-11T12:00:40.909Z,74.91
2023-01-11T12:01:47.459Z,75.57
2023-01-11T12:02:58.333Z,75.22
2023-01-11T12:04:20.391Z,75.11
2023-01-11T12:05:22.379Z,75.01
2023-01-11T12:06:26.641Z,74.78
2023-01-11T12:07:30.712Z,74.69
2023-01-11T12:08:34.333Z,75.23
2023-01-11T12:09:36.634Z,75.24
2023-01-11T12:10:47.839Z,74.88
2023-01-11T12:11:50.104Z,75.09
2023-01-11T12:13:02.517Z,75.38
2023-01-11T12:14:22.969Z,75.25
2023-01-11T12:15:29.370Z,75.05
2023-01-11T12:16:40.057Z,75.33
2023-01-11T12:17:42.283Z,75.45
2023-01-11T12:18:44.144Z,75.97
2023-01-11T12:19:48.075Z,75.72
2023-01-11T12:20:50.028Z,75.21
2023-01-11T12:21:51.887Z,75.60
2023-01-11T12:23:12.886Z,75.37
2023-01-11T12:24:23.340Z,75.45
2023-01-11T12:25:29.275Z,75.34
2023-01-11T12:26:38.856Z,75.34
2023-01-11T12:27:46.463Z,74.93
2023-01-11T12:29:00.693Z,74.91
2023-01-11T12:30:10.396Z,75.24
2023-01-11T12:31:15.074Z,75.42
2023-01-11T12:32:16.984Z,75.57
2023-01-11T12:33:18.760Z,75.04
2023-01-11T12:34:29.753Z,74.90
2023-01-11T12:35:37.609Z,75.16
2023-01-11T12:36:39.284Z,75.42
2023-01-11T12:37:51.080Z,75.13
2023-01-11T12:39:11.058Z,75.60
2023-01-11T12:40:15.818Z,75.38
2023-01-11T12:41:47.747Z,75.87
2023-01-11T12:42:55.704Z,75.86
2023-01-11T12:44:10.378Z,75.36
2023-01-11T12:45:15.162Z,75.18
2023-01-11T12:46:19.983Z,75.63
2023-01-11T12:47:40.776Z,75.19
2023-01-11T12:48:52.766Z,74.69
2023-01-11T12:50:12.236Z,75.29
2023-01-11T12:51:21.482Z,74.66
2023-01-11T12:52:24.126Z,74.99
2023-01-11T12:53:31.285Z,75.47
2023-01-11T12:54:52.641Z,74.67
2023-01-11T12:56:13.139Z,75.32
2023-01-11T12:57:26.176Z,74.92
2023-01-11T12:58:30.673Z,75.36
2023-01-11T12:59:32.428Z,75.19
2023-01-11T13:00:34.188Z,75.29
2023-01-11T13:01:56.284Z,74.98
2023-01-11T13:03:16.623Z,75.22
2023-01-11T13:04:39.043Z,75.81
2023-01-11T13:05:49.984Z,75.08
2023-01-11T13:06:59.507Z,75.18
2023-01-11T13:08:10.479Z,75.82
2023-01-11T13:09:16.749Z,75.61
2023-01-11T13:10:27.916Z,75.47
2023-01-11T13:11:56.005Z,75.64
2023-01-11T13:13:15.570Z,74.56
2023-01-11T13:14:17.369Z,75.20
2023-01-11T13:15:42.352Z,75.79
2023-01-11T13:16:44.126Z,75.58
2023-01-11T13:17:55.593Z,75.93
2023-01-11T13:19:07.851Z,74.41
2023-01-11T13:20:29.986Z,75.09
2023-01-11T13:21:35.914Z,75.38
2023-01-11T13:22:40.902Z,75.08
2023-01-11T13:23:45.852Z,75.59
2023-01-11T13:24:49.464Z,75.53
2023-01-11T13:25:52.150Z,75.27
2023-01-11T13:26:59.701Z,75.22
2023-01-11T13:28:06.763Z,75.57
2023-01-11T13:29:18.647Z,75.06
2023-01-11T13:30:24.601Z,74.88
2023-01-11T13:31:26.915Z,75.27
2023-01-11T13:32:38.957Z,75.37
2023-01-11T13:33:45.340Z,75.29
2023-01-11T13:34:47.607Z,74.89
2023-01-11T13:35:53.063Z,75.29
2023-01-11T13:37:03.877Z,75.29
2023-01-11T13:38:16.968Z,75.24
2023-01-11T13:39:32.782Z,75.20
2023-01-11T13:40:34.556Z,75.01
2023-01-11T13:41:47.610Z,75.59
2023-01-11T13:42:53.611Z,75.87
2023-01-11T13:44:04.594Z,75.49
2023-01-11T13:45:09.374Z,76.43
2023-01-11T13:46:19.669Z,76.05
2023-01-11T13:47:27.634Z,75.93
2023-01-11T13:48:34.461Z,75.77
2023-01-11T13:49:36.294Z,76.14
2023-01-11T13:50:40.295Z,76.23
2023-01-11T13:52:01.458Z,76.18
2023-01-11T13:53:04.034Z,75.75
2023-01-11T13:54:11.857Z,75.96
2023-01-11T13:55:26.254Z,76.05
2023-01-11T13:56:28.375Z,75.73
2023-01-11T13:57:36.291Z,76.72
2023-01-11T13:58:58.226Z,76.14
2023-01-11T14:00:20.407Z,76.04
2023-01-11T14:01:28.222Z,76.39
2023-01-11T14:02:38.735Z,75.83
2023-01-11T14:03:57.632Z,76.29
2023-01-11T14:05:19.914Z,75.62
2023-01-11T14:06:21.711Z,75.84
2023-01-11T14:07:38.604Z,76.17
2023-01-11T14:09:00.618Z,75.99
2023-01-11T14:10:08.254Z,76.30
2023-01-11T14:11:13.251Z,76.05
2023-01-11T14:12:30.158Z,76.15
2023-01-11T14:14:09.675Z,76.32
2023-01-11T14:15:11.418Z,76.92
2023-01-11T14:16:19.677Z,76.09
2023-01-11T14:17:24.345Z,76.87
2023-01-11T14:18:38.456Z,76.46